Disclaimer

Please do not use the information listed here in-flight or in-navigation, as they are not provided to us by the airports but are provided by volunteers, so they might be outdated.

Search


Regions


Airport information page

No radio frequency information is available.

Airport informations:
Latitude: 39° 32' 34.52" N
Longitude: 076° 01' 11.84" E
Elevation: 4529 feet - 1380 meters
Operating hours: Remarks
Operating agency: Civil government, landing fees and diplomatic clearance may be required
Timezone: UTC+8
Fuel: N/A

Runway information:
08/26 - 10499 x 135 feet< - >3200 x 41 meters

Recent METARs:
ZWSH 201600Z VRB02MPS 9999 BKN040 03/M06 Q1028 NOSIG
ZWSH 201600Z VRB02MPS 9999 BKN040 03/M06 Q1028 NOSIG
ZWSH 201700Z AUTO 05002MPS 9999 // ////// 03/M07 Q1029

Airport on the map: